Faber, Virginia
Current Conditions -  °F | °C
As of 8:15 AM on Thursday 23 Oct 2014 (Local Time) from KW13 Reporting Station
Clear Clear  
Wind Chill: 40°   Ceiling: Unl
Heat Index: 46°   Visibility: 10mi
Dew Point: 37°   Wind: 12mph
Humidity: 73%   Direction: 280°W
Pressure: 30"   Gusts: 17mph
Location:  37.83°N, 78.74°W
Report Text: KW13 231215Z AUTO 28010G15KT 10SM CLR 08/03 A3000 RMK AO1 T00750030
Loading
Personal Weather Stations






























Interactive Weather Map
Tropical Storm Tracking
New forecast layout! Learn more

10-Day Weather Forecast

Advertisements
Track Severe Weather on mobile